Islamorada, FL (33036)

9:46 AM EST on November 27, 2014 (GMT -0500)
APRSWXNET Islamorada FL US | Change Station
CLOSE
Current Station
Personal Weather Station
Location: Islamorada, FL
Elevation: 15 ft
Nearby Weather Stations

Elev 15 ft 24.92 °N, 80.64 °W | Updated 2 hours ago

Clear
Clear
60.0 °F
Feels Like 60.0 °F
N
17.0
Wind Variable Wind from NW
Gusts 23.0 mph

Today
High -- | Low -- °F
--% Chance of Precip.
Yesterday
High -- | Low -- °F
Precip. -- in
6:47 AM 5:32 PM
Waxing Crescent, 30% visible
Pressure 30.28 in
Visibility 10.0 miles
Clouds Clear
Dew Point 56.0 °F
Humidity 87%
Rainfall 0.04 in
Snow Depth Not available.
UV 3 out of 12
Pollen 4.30 out of 12
Air Quality Not available.
Flu Activity Not available.
METAR KHST 271358Z AUTO 34012KT 10SM CLR 16/10 A3027 RMK AO2 SLP254 T01560098 $

More Conditions Fewer Conditions

Pressure 30.28 in
Visibility 10.0 miles
Clouds Clear
Dew Point 56.0 °F
Humidity 87%
Rainfall 0.04 in
Snow Depth Not available.
UV 3 out of 12
Pollen 4.30 out of 12
Air Quality Not available.
Flu Activity Not available.
METAR KHST 271358Z AUTO 34012KT 10SM CLR 16/10 A3027 RMK AO2 SLP254 T01560098 $

More Conditions Fewer Conditions

10-Day Weather Forecast

Almanac

Astronomy

Nov. 27, 2014 Rise Set
Actual Time
Civil Twilight
Nautical Twilight
Astronomical Twilight
Moon
Length of Visible Light
Length of Day
Tomorrow will be .
, % of the Moon is Illuminated

Today's Extremes

State Highs State Lows

Community

WunderPhotos

Upload Photos

1,774,005 photos uploaded!

WunderBlogs® & News

Nearby

Air Quality

  Air Quality AQ Index Pollutant
Not available.

Snow Depth

Station Depth Elevation

Earthquake Activity

City Distance Mag. Time & Date
Minimum magnitude displayed is 2.5.

Coastal Water Temperatures

Place Temperature

Nearby Weather Stations